Flight Track Log - Related Links

Times and Time Zones

All times are in EDT time to prevent confusion due to time zone crossing. See the CTL78 flight status page for this flight to view local times or setup timezone preferences in your user account.

Time Position Orientation Groundspeed Altitude Reporting Facility
EDT Latitude Longitude Course Direction KTS MPH feet Rate Location/Type
Fri 22:36:00 41.6562 -81.8878 312° West  Level Estimated
Fri 22:37:00 41.6793 -81.9220 312° West  Level Estimated
Fri 22:38:00 41.7023 -81.9562 312° West  Level Estimated
Fri 22:39:00 41.7254 -81.9904 312° West  Level Estimated
Fri 22:40:00 41.7484 -82.0246 312° West  Level Estimated
Fri 22:41:00 41.7715 -82.0589 312° West  Level Estimated
Fri 22:42:00 41.7945 -82.0932 312° West  Level Estimated
Fri 22:43:00 41.8175 -82.1275 312° West  Level Estimated
Fri 22:44:00 41.8405 -82.1618 312° West  Level Estimated
Fri 22:45:00 41.8635 -82.1962 312° West  Level Estimated
Fri 22:46:00 41.8865 -82.2306 312° West  Level Estimated
Fri 22:47:00 41.9095 -82.2650 312° West  Level Estimated
Fri 22:48:00 41.9325 -82.2994 312° West  Level Estimated
Fri 22:49:00 41.9554 -82.3339 312° West  Level Estimated
Fri 22:50:00 41.9784 -82.3684 312° West  Level Estimated
Fri 22:51:00 42.0013 -82.4029 312° West  Level Estimated
Fri 22:52:00 42.0243 -82.4374 312° West  Level Estimated
Fri 22:53:00 42.0472 -82.4720 312° West  Level Estimated
Fri 22:54:00 42.0701 -82.5066 312° West  Level Estimated
Fri 22:55:00 42.0929 -82.5412 312° West  Level Estimated
Fri 22:56:00 42.1158 -82.5758 312° West  Level Estimated
Fri 22:57:00 42.1387 -82.6105 312° West  Level Estimated
Fri 22:58:00 42.1616 -82.6452 312° West  Level Estimated
Fri 22:59:00 42.1844 -82.6799 312° West  Level Estimated
Fri 23:00:00 42.2072 -82.7146 312° West  Level Estimated
Fri 23:01:00 42.2301 -82.7494 312° West  Level Estimated
Fri 23:02:00 42.2529 -82.7842 312° West  Level Estimated
Fri 23:03:00 42.2757 -82.8190 312° West  Level Estimated
Fri 23:04:00 42.2985 -82.8538 312° West  Level Estimated
Fri 23:05:00 42.3213 -82.8887 311° West  Level Estimated
Fri 23:06:00 42.3441 -82.9236 311° West  Level Estimated
Fri 23:07:00 42.3669 -82.9585 311° West  Level Estimated
Fri 23:08:00 42.3896 -82.9934 311° West  Level Estimated
Fri 23:09:00 42.4124 -83.0284 311° West  Level Estimated
Fri 23:10:00 42.4351 -83.0634 311° West  Level Estimated
Fri 23:11:00 42.4578 -83.0984 311° West  Level Estimated
Fri 23:12:00 42.4805 -83.1334 311° West  Level Estimated
Fri 23:13:00 42.5032 -83.1685 311° West  Level Estimated
Fri 23:14:00 42.5259 -83.2036 311° West  Level Estimated
Fri 23:15:00 42.5486 -83.2387 311° West  Level Estimated
Fri 23:16:00 42.5713 -83.2738 311° West  Level Estimated
Fri 23:17:00 42.5939 -83.3090 311° West  Level Estimated
Fri 23:18:00 42.6166 -83.3442 311° West  Level Estimated
Fri 23:19:00 42.6392 -83.3794 311° West  Level Estimated
Fri 23:20:00 42.6619 -83.4146 311° West  Level Estimated
Fri 23:21:00 42.6656 -83.4205 311° West  Level Estimated
Fri 23:22:00 42.6656 -83.4205 140° Southeast  Level Estimated
Fri 23:23:00 42.6656 -83.4205 140° Southeast  Level Estimated
Fri 23:24:00 42.6656 -83.4205 140° Southeast  Level Estimated
Fri 23:25:00 42.6656 -83.4205 140° Southeast  Level Estimated
Fri 23:26:00 42.6656 -83.4205 140° Southeast  Level Estimated
Fri 23:27:00 42.6656 -83.4205 140° Southeast  Level Estimated
Fri 23:28:00 42.6656 -83.4205 140° Southeast  Level Estimated
Fri 23:29:00 42.6656 -83.4205 140° Southeast  Level Estimated
Fri 23:30:00 42.6656 -83.4205 140° Southeast  Level Estimated
Fri 23:31:00 42.6656 -83.4205 140° Southeast  Level Estimated
Fri 23:32:00 42.6656 -83.4205 140° Southeast  Level Estimated
Fri 23:33:00 42.6656 -83.4205 140° Southeast  Level Estimated
Fri 23:34:00 42.6656 -83.4205 140° Southeast  Level Estimated
Fri 23:35:00 42.6656 -83.4205 140° Southeast  Level Estimated
Fri 23:36:00 42.6656 -83.4205 140° Southeast  Level Estimated

Login

Don't have an account? Register now (free) for customized features, flight alerts, and more!